Al Manamah — A9HW — position and weather

sailwx.info

Track history (hours):
 
Tides and Currents Weather Stations Pressure Air Temp Water Temp Dewpoint Dewpoint Depression Visibility Wind Speed Wind Dir Waves Ship Positions

Al Manamah

Last reported at 2017-Sep-26 06:57 UTC. Time now 2017-Oct-17 10:09 UTC.
Position N 43°24' E 004°51'.
Warning: this ship's position is 21 days out of date.

Length 306 m; draft 10.6 m.

Type: Ship (hazmat cat A). MMSI: 408826000.

Date/timePositionNaut miles runAvg speedWind from/ knotsBaromVisibWave heightAir tempDewpointWater temp
2017-Sep-26 06:57N 43°24' E 004°51'0 0.0
2017-Sep-26 06:30N 43°24' E 004°51'0 0.0
2017-Sep-26 06:00N 43°24' E 004°51'0 0.0
2017-Sep-26 05:30N 43°24' E 004°51'0 0.0
2017-Sep-26 05:00N 43°24' E 004°51'0 0.0
2017-Sep-26 04:30N 43°24' E 004°51'0 0.0
2017-Sep-26 04:00N 43°24' E 004°51'0 0.0
2017-Sep-26 03:30N 43°24' E 004°51'0 0.0
2017-Sep-26 03:00N 43°24' E 004°51'0 0.0
2017-Sep-26 02:30N 43°24' E 004°51'0 0.0
2017-Sep-26 02:00N 43°24' E 004°51'0 0.0
2017-Sep-26 01:30N 43°24' E 004°51'0 0.0
2017-Sep-26 01:00N 43°24' E 004°51'0 0.0
2017-Sep-26 00:30N 43°24' E 004°51'0 0.0
2017-Sep-26 00:00N 43°24' E 004°51'0 0.0
2017-Sep-25 23:30N 43°24' E 004°51'0 0.0
2017-Sep-25 23:00N 43°24' E 004°51'0 0.0
2017-Sep-25 22:30N 43°24' E 004°51'0 0.0
2017-Sep-25 22:00N 43°24' E 004°51'0 0.0
2017-Sep-25 21:30N 43°24' E 004°51'0 0.0
2017-Sep-25 21:00N 43°24' E 004°51'0 0.0
2017-Sep-25 20:30N 43°24' E 004°51'0 0.0
2017-Sep-25 20:00N 43°24' E 004°51'1 1.8
2017-Sep-25 19:30N 43°24' E 004°52'510.8
2017-Sep-25 19:00N 43°21' E 004°58'510.1
2017-Sep-25 18:30N 43°16' E 005°01'611.7
2017-Sep-25 18:00N 43°11' E 005°01'713.8
2017-Sep-25 17:30N 43°06' E 004°54'2 3.5
2017-Sep-25 17:00N 43°05' E 004°53'0 0.2
2017-Sep-25 16:30N 43°05' E 004°53'0 0.2
2017-Sep-25 16:00N 43°05' E 004°53'0 0.4
2017-Sep-25 15:31N 43°05' E 004°53'1 1.1
2017-Sep-25 15:00N 43°05' E 004°54'3 6.6
2017-Sep-25 14:30N 43°02' E 004°52'816.6
2017-Sep-25 14:00N 42°55' E 004°45'816.8
2017-Sep-25 13:30N 42°49' E 004°38'816.8
2017-Sep-25 13:01N 42°42' E 004°31'816.7
2017-Sep-25 12:30N 42°35' E 004°24'816.6
2017-Sep-25 12:00N 42°29' E 004°17'816.4
2017-Sep-25 11:30N 42°22' E 004°11'815.8
2017-Sep-25 11:00N 42°16' E 004°04'815.3
2017-Sep-25 10:31N 42°10' E 003°58'714.8
2017-Sep-25 10:00N 42°04' E 003°52'815.0
2017-Sep-25 09:28N 41°57' E 003°45'715.4
2017-Sep-25 09:00N 41°51' E 003°40'1615.8
2017-Sep-25 08:00N 41°39' E 003°27'815.9
2017-Sep-25 07:29N 41°31' E 003°23'1017.2
2017-Sep-25 06:53N 41°24' E 003°13'717.7
2017-Sep-25 06:30N 41°19' E 003°07'2118.6
2017-Sep-25 05:24N 41°03' E 002°50'718.7
2017-Sep-25 05:00N 40°57' E 002°44'918.5
2017-Sep-25 04:30N 40°49' E 002°37'919.0
2017-Sep-25 04:01N 40°42' E 002°29'1019.2
2017-Sep-25 03:30N 40°35' E 002°21'1019.5
2017-Sep-25 03:00N 40°27' E 002°13'1019.6
2017-Sep-25 02:30N 40°19' E 002°05'1019.4
2017-Sep-25 02:00N 40°12' E 001°57'918.9
2017-Sep-25 01:30N 40°04' E 001°49'919.0
2017-Sep-25 01:00N 39°57' E 001°42'918.6
2017-Sep-25 00:31N 39°49' E 001°35'918.6
2017-Sep-25 00:00N 39°42' E 001°28'1318.7
2017-Sep-24 23:19N 39°31' E 001°18'618.9
2017-Sep-24 23:00N 39°27' E 001°13'1018.9
2017-Sep-24 22:30N 39°19' E 001°05'918.9
2017-Sep-24 22:00N 39°12' E 000°58'1019.3
2017-Sep-24 21:30N 39°04' E 000°50'1019.1
2017-Sep-24 21:01N 38°57' E 000°43'1219.1
2017-Sep-24 20:24N 38°47' E 000°34'819.1
2017-Sep-24 19:58N 38°41' E 000°27'919.0
2017-Sep-24 19:30N 38°34' E 000°21'918.9
2017-Sep-24 19:00N 38°26' E 000°15'1019.1
2017-Sep-24 18:30N 38°17' E 000°08'1018.9
2017-Sep-24 18:00N 38°10' E 000°01'1018.9
2017-Sep-24 17:30N 38°02' W 000°05'918.7
2017-Sep-24 17:00N 37°54' W 000°12'918.7
2017-Sep-24 16:30N 37°46' W 000°19'918.7
2017-Sep-24 16:01N 37°39' W 000°26'918.4
2017-Sep-24 15:30N 37°31' W 000°33'918.4
2017-Sep-24 15:01N 37°25' W 000°41'918.4
2017-Sep-24 14:30N 37°19' W 000°50'1118.5
2017-Sep-24 13:55N 37°12' W 000°60'20717.5
2017-Sep-24 02:04N 36°01' W 005°02'618.6
2017-Sep-24 01:46N 35°60' W 005°09'518.5
2017-Sep-24 01:31N 35°59' W 005°15'918.4
2017-Sep-24 01:01N 35°57' W 005°26'917.9
2017-Sep-24 00:30N 35°55' W 005°37'2416.3
2017-Sep-23 23:03N 35°54' W 006°06'717.4
2017-Sep-23 22:38N 35°54' W 006°14'78115.4
2017-Sep-21 19:57N 48°55' W 005°48'1018.2
2017-Sep-21 19:23N 49°00' W 005°35'616.4
2017-Sep-21 19:00N 49°03' W 005°27'815.0
2017-Sep-21 18:29N 49°07' W 005°16'5216.2
2017-Sep-21 15:16N 49°32' W 004°06'518.5
2017-Sep-21 14:59N 49°35' W 003°59'919.0
2017-Sep-21 14:30N 49°39' W 003°47'1019.7
2017-Sep-21 14:00N 49°44' W 003°34'1020.3
2017-Sep-21 13:30N 49°50' W 003°20'1020.4
2017-Sep-21 13:00N 49°55' W 003°06'1020.2
2017-Sep-21 12:30N 49°59' W 002°52'1019.6
2017-Sep-21 12:00N 50°03' W 002°38'8815.3
2017-Sep-21 06:15N 49°38' W 000°27'518.6
2017-Sep-21 06:00N 49°35' W 000°21'918.9
2017-Sep-21 05:30N 49°32' W 000°08'816.7
2017-Sep-21 05:00N 49°29' E 000°05'3 6.4
2017-Sep-21 04:31N 49°28' E 000°09'0 0.5
2017-Sep-21 04:00N 49°28' E 000°09'0 0.0
2017-Sep-21 03:30N 49°28' E 000°09'0 0.0
2017-Sep-21 03:00N 49°28' E 000°09'0 0.0
2017-Sep-21 02:30N 49°28' E 000°09'0 0.0
2017-Sep-21 02:00N 49°28' E 000°09'0 0.0
2017-Sep-21 01:30N 49°28' E 000°09'0 0.0
2017-Sep-21 01:00N 49°28' E 000°09'0 0.0
2017-Sep-21 00:30N 49°28' E 000°09'0 0.0
2017-Sep-21 00:00N 49°28' E 000°09'0 0.0
2017-Sep-20 23:30N 49°28' E 000°09'0 0.0
2017-Sep-20 23:00N 49°28' E 000°09'0 0.0
2017-Sep-20 22:30N 49°28' E 000°09'0 0.0
2017-Sep-20 22:00N 49°28' E 000°09'0 0.0
2017-Sep-20 21:30N 49°28' E 000°09'0 0.2
2017-Sep-20 21:00N 49°28' E 000°09'3 6.5
2017-Sep-20 20:30N 49°29' E 000°04'714.1
2017-Sep-20 20:01N 49°31' W 000°06'4 8.0
2017-Sep-20 19:31N 49°35' W 000°10'611.8
2017-Sep-20 19:01N 49°40' W 000°10'1019.7
2017-Sep-20 18:31N 49°50' W 000°08'1121.5
2017-Sep-20 18:00N 50°01' W 000°10'1121.3
2017-Sep-20 17:29N 50°12' W 000°12'1020.4
2017-Sep-20 17:01N 50°22' W 000°11'1020.6
2017-Sep-20 16:30N 50°28' E 000°02'1121.9
2017-Sep-20 16:01N 50°32' E 000°18'1121.8
2017-Sep-20 15:31N 50°35' E 000°34'1121.0
2017-Sep-20 15:01N 50°40' E 000°48'2020.1
2017-Sep-20 14:00N 50°54' E 001°11'918.6
2017-Sep-20 13:31N 51°01' E 001°22'917.5
2017-Sep-20 13:01N 51°06' E 001°32'917.1
2017-Sep-20 12:31N 51°12' E 001°43'917.9
2017-Sep-20 12:01N 51°19' E 001°51'1019.1
2017-Sep-20 11:30N 51°27' E 001°60'1020.2
2017-Sep-20 11:00N 51°35' E 002°10'1120.9
2017-Sep-20 10:30N 51°43' E 002°20'3520.1
2017-Sep-20 08:47N 52°02' E 003°08'621.5
2017-Sep-20 08:30N 52°02' E 003°18'1121.6
2017-Sep-20 08:00N 52°03' E 003°35'1019.5
2017-Sep-20 07:31N 52°03' E 003°51'3 6.9
2017-Sep-20 07:00N 52°01' E 003°56'713.4
2017-Sep-20 06:30N 51°59' E 004°06'510.4
2017-Sep-20 06:00N 51°56' E 004°13'5 9.4
2017-Sep-20 05:30N 51°54' E 004°20'4 7.6
2017-Sep-20 05:00N 51°54' E 004°26'1 1.4
2017-Sep-20 04:30N 51°53' E 004°26'0 0.0
2017-Sep-20 04:00N 51°53' E 004°26'0 0.0
2017-Sep-20 03:30N 51°53' E 004°26'0 0.0
2017-Sep-20 03:00N 51°53' E 004°26'0 0.0
2017-Sep-20 02:30N 51°53' E 004°26'0 0.0
2017-Sep-20 02:00N 51°53' E 004°26'0 0.0
2017-Sep-20 01:30N 51°53' E 004°26'0 0.0
2017-Sep-20 01:00N 51°53' E 004°26'0 0.0
2017-Sep-20 00:30N 51°53' E 004°26'0 0.0
2017-Sep-20 00:00N 51°53' E 004°26'0 0.0
2017-Sep-19 23:30N 51°53' E 004°26'0 0.0
2017-Sep-19 23:00N 51°53' E 004°26'0 0.0
2017-Sep-19 22:30N 51°53' E 004°26'0 0.0
2017-Sep-19 22:00N 51°53' E 004°26'0 0.0
2017-Sep-19 21:30N 51°53' E 004°26'0 0.0
2017-Sep-19 21:00N 51°53' E 004°26'0 0.0
2017-Sep-19 20:30N 51°53' E 004°26'0 0.0
2017-Sep-19 20:00N 51°53' E 004°26'0 0.0
2017-Sep-19 19:30N 51°53' E 004°26'0 0.0
2017-Sep-19 19:00N 51°53' E 004°26'0 0.0
2017-Sep-19 18:30N 51°53' E 004°26'0 0.0
2017-Sep-19 18:00N 51°53' E 004°26'0 0.0
2017-Sep-19 17:30N 51°53' E 004°26'0 0.0
2017-Sep-19 17:00N 51°53' E 004°26'0 0.0
2017-Sep-19 16:30N 51°53' E 004°26'0 0.0
2017-Sep-19 16:00N 51°53' E 004°26'0 0.0
2017-Sep-19 15:30N 51°53' E 004°26'0 0.0
2017-Sep-19 15:00N 51°53' E 004°26'0 0.0
2017-Sep-19 14:30N 51°53' E 004°26'0 0.0
2017-Sep-19 14:00N 51°53' E 004°26'0 0.0
2017-Sep-19 13:30N 51°53' E 004°26'0 0.0
2017-Sep-19 13:00N 51°53' E 004°26'0 0.0
2017-Sep-19 12:30N 51°53' E 004°26'0 0.0
2017-Sep-19 12:00N 51°53' E 004°26'0 0.0
2017-Sep-19 11:30N 51°53' E 004°26'0 0.0
2017-Sep-19 11:00N 51°53' E 004°26'0 0.0
2017-Sep-19 10:30N 51°53' E 004°26'0 0.0
2017-Sep-19 10:00N 51°53' E 004°26'0 0.0
2017-Sep-19 09:30N 51°53' E 004°26'0 0.0
2017-Sep-19 09:00N 51°53' E 004°26'0 0.0
2017-Sep-19 08:30N 51°53' E 004°26'0 0.0
2017-Sep-19 08:00N 51°53' E 004°26'0 0.0
2017-Sep-19 07:30N 51°53' E 004°26'0 0.0
2017-Sep-19 07:00N 51°53' E 004°26'0 0.0
2017-Sep-19 06:30N 51°53' E 004°26'0 0.0
2017-Sep-19 06:00N 51°53' E 004°26'0 0.0
2017-Sep-19 05:30N 51°53' E 004°26'0 0.0
2017-Sep-19 05:00N 51°53' E 004°26'0 0.0
2017-Sep-19 04:30N 51°53' E 004°26'0 0.0
2017-Sep-19 04:00N 51°53' E 004°26'0 0.8
2017-Sep-19 03:31N 51°54' E 004°26'2 4.0
2017-Sep-19 03:00N 51°54' E 004°23'4 7.0
2017-Sep-19 02:30N 51°54' E 004°17'4 7.9
2017-Sep-19 02:01N 51°56' E 004°12'5 9.2
2017-Sep-19 01:31N 51°59' E 004°06'4 8.2
2017-Sep-19 01:00N 52°00' E 003°60'4 8.6
2017-Sep-19 00:30N 51°60' E 003°53'0 0.9
2017-Sep-19 00:01N 51°60' E 003°52'2 3.1
2017-Sep-18 23:31N 52°00' E 003°50'510.4
2017-Sep-18 23:00N 52°02' E 003°42'611.9
2017-Sep-18 22:30N 52°06' E 003°34'611.2
2017-Sep-18 22:00N 52°11' E 003°30'612.9
2017-Sep-18 21:31N 52°17' E 003°30'712.9
2017-Sep-18 21:00N 52°24' E 003°30'613.0
2017-Sep-18 20:30N 52°30' E 003°29'4411.9
2017-Sep-18 16:48N 53°05' E 004°15'3 7.1
2017-Sep-18 16:26N 53°07' E 004°18'3 6.9
2017-Sep-18 15:59N 53°09' E 004°22'13 6.4
2017-Sep-18 13:59N 53°20' E 004°32'4 7.3
2017-Sep-18 13:30N 53°23' E 004°34'4 7.7
2017-Sep-18 13:00N 53°27' E 004°37'4 8.2
2017-Sep-18 12:28N 53°29' E 004°43'4 8.9
2017-Sep-18 12:00N 53°30' E 004°50'612.3
2017-Sep-18 11:31N 53°33' E 004°59'613.0
2017-Sep-18 11:01N 53°36' E 005°09'612.7
2017-Sep-18 10:30N 53°38' E 005°19'612.5
2017-Sep-18 10:00N 53°40' E 005°29'5 9.8
2017-Sep-18 09:31N 53°42' E 005°37'7510.8
2017-Sep-18 02:35N 54°01' E 007°40'112.1
2017-Sep-18 02:29N 54°02' E 007°41'812.2
2017-Sep-18 01:52N 54°01' E 007°54'512.8
2017-Sep-18 01:30N 54°01' E 008°02'612.6
2017-Sep-18 01:00N 54°00' E 008°13'919.0
2017-Sep-18 00:31N 53°59' E 008°29'917.2
2017-Sep-18 00:00N 53°54' E 008°41'612.5
2017-Sep-17 23:30N 53°50' E 008°49'815.4
2017-Sep-17 23:01N 53°52' E 009°02'510.9
2017-Sep-17 22:31N 53°53' E 009°11'611.7
2017-Sep-17 22:01N 53°50' E 009°20'612.8
2017-Sep-17 21:30N 53°45' E 009°25'611.0
2017-Sep-17 21:00N 53°40' E 009°31'5 9.4
2017-Sep-17 20:30N 53°36' E 009°35'510.8
2017-Sep-17 20:00N 53°34' E 009°43'510.7
2017-Sep-17 19:30N 53°33' E 009°52'2 3.3
2017-Sep-17 19:00N 53°32' E 009°55'0 0.0
2017-Sep-17 18:30N 53°32' E 009°55'0 0.0
2017-Sep-17 18:00N 53°32' E 009°55'0 0.0
2017-Sep-17 17:30N 53°32' E 009°55'0 0.0
2017-Sep-17 17:00N 53°32' E 009°55'0 0.0
2017-Sep-17 16:30N 53°32' E 009°55'0 0.0
2017-Sep-17 16:00N 53°32' E 009°55'0 0.0
2017-Sep-17 15:30N 53°32' E 009°55'0 0.0
2017-Sep-17 15:00N 53°32' E 009°55'0 0.0
2017-Sep-17 14:30N 53°32' E 009°55'0 0.0
2017-Sep-17 14:00N 53°32' E 009°55'0 0.0
2017-Sep-17 13:30N 53°32' E 009°55'0 0.0
2017-Sep-17 13:00N 53°32' E 009°55'0 0.0
2017-Sep-17 12:30N 53°32' E 009°55'0 0.0
2017-Sep-17 12:00N 53°32' E 009°55'0 0.0
2017-Sep-17 11:30N 53°32' E 009°55'0 0.0
2017-Sep-17 11:00N 53°32' E 009°55'0 0.0
2017-Sep-17 10:30N 53°32' E 009°55'0 0.0
2017-Sep-17 10:00N 53°32' E 009°55'0 0.0
2017-Sep-17 09:30N 53°32' E 009°55'0 0.0
2017-Sep-17 09:00N 53°32' E 009°55'0 0.0
2017-Sep-17 08:30N 53°32' E 009°55'0 0.0
2017-Sep-17 08:00N 53°32' E 009°55'0 0.0
2017-Sep-17 07:30N 53°32' E 009°55'0 0.0
2017-Sep-17 07:00N 53°32' E 009°55'0 0.0
2017-Sep-17 06:30N 53°32' E 009°55'0 0.0
2017-Sep-17 06:00N 53°32' E 009°55'0 0.0
2017-Sep-17 05:30N 53°32' E 009°55'0 0.0
2017-Sep-17 05:00N 53°32' E 009°55'0 0.0
2017-Sep-17 04:30N 53°32' E 009°55'0 0.0
2017-Sep-17 04:00N 53°32' E 009°55'0 0.0
2017-Sep-17 03:30N 53°32' E 009°55'0 0.0
2017-Sep-17 03:00N 53°32' E 009°55'0 0.0
2017-Sep-17 02:30N 53°32' E 009°55'0 0.0
2017-Sep-17 02:00N 53°32' E 009°55'0 0.0
2017-Sep-17 01:30N 53°32' E 009°55'0 0.0
2017-Sep-17 01:00N 53°32' E 009°55'0 0.0
2017-Sep-17 00:30N 53°32' E 009°55'0 0.0
2017-Sep-17 00:00N 53°32' E 009°55'0 0.0
2017-Sep-16 23:30N 53°32' E 009°55'0 0.0
2017-Sep-16 23:00N 53°32' E 009°55'0 0.0
2017-Sep-16 22:30N 53°32' E 009°55'0 0.0
2017-Sep-16 22:00N 53°32' E 009°55'0 0.0
2017-Sep-16 21:30N 53°32' E 009°55'0 0.0
2017-Sep-16 21:00N 53°32' E 009°55'0 0.0
2017-Sep-16 20:30N 53°32' E 009°55'0 0.0
2017-Sep-16 20:00N 53°32' E 009°55'0 0.0
2017-Sep-16 19:30N 53°32' E 009°55'0 0.0
2017-Sep-16 19:00N 53°32' E 009°55'0 0.0
2017-Sep-16 18:30N 53°32' E 009°55'0 0.0
2017-Sep-16 18:00N 53°32' E 009°55'0 0.0
2017-Sep-16 17:30N 53°32' E 009°55'0 0.0
2017-Sep-16 17:00N 53°32' E 009°55'0 0.0
2017-Sep-16 16:30N 53°32' E 009°55'0 0.0
2017-Sep-16 16:00N 53°32' E 009°55'0 0.0
2017-Sep-16 15:30N 53°32' E 009°55'0 0.0
2017-Sep-16 15:00N 53°32' E 009°55'0 0.0
2017-Sep-16 14:30N 53°32' E 009°55'0 0.0
2017-Sep-16 14:00N 53°32' E 009°55'0 0.9
2017-Sep-16 13:30N 53°32' E 009°54'3 6.8
2017-Sep-16 13:00N 53°33' E 009°48'5 9.6
2017-Sep-16 12:31N 53°34' E 009°40'612.1
2017-Sep-16 12:00N 53°38' E 009°32'611.3
2017-Sep-16 11:31N 53°43' E 009°29'612.3
2017-Sep-16 11:01N 53°48' E 009°23'815.1
2017-Sep-16 10:30N 53°53' E 009°13'5 9.1
2017-Sep-16 10:00N 53°52' E 009°05'816.1
2017-Sep-16 09:31N 53°50' E 008°52'612.1
2017-Sep-16 09:00N 53°53' E 008°42'815.8
2017-Sep-16 08:31N 53°58' E 008°32'816.7
2017-Sep-16 08:00N 53°60' E 008°18'713.3
2017-Sep-16 07:30N 53°59' E 008°07'  
Track history (hours):
 
Tides and Currents Weather Stations Pressure Air Temp Water Temp Dewpoint Dewpoint Depression Visibility Wind Speed Wind Dir Waves Ship Positions

Al Manamah

Last reported at 2017-Sep-26 06:57 UTC. Time now 2017-Oct-17 10:09 UTC.
Position N 43°24' E 004°51'.
Warning: this ship's position is 21 days out of date.

Length 306 m; draft 10.6 m.

Type: Ship (hazmat cat A). MMSI: 408826000.

Date/timePositionNaut miles runAvg speedWind from/ knotsBaromVisibWave heightAir tempDewpointWater temp
2017-Sep-26 06:57N 43°24' E 004°51'0 0.0
2017-Sep-26 06:30N 43°24' E 004°51'0 0.0
2017-Sep-26 06:00N 43°24' E 004°51'0 0.0
2017-Sep-26 05:30N 43°24' E 004°51'0 0.0
2017-Sep-26 05:00N 43°24' E 004°51'0 0.0
2017-Sep-26 04:30N 43°24' E 004°51'0 0.0
2017-Sep-26 04:00N 43°24' E 004°51'0 0.0
2017-Sep-26 03:30N 43°24' E 004°51'0 0.0
2017-Sep-26 03:00N 43°24' E 004°51'0 0.0
2017-Sep-26 02:30N 43°24' E 004°51'0 0.0
2017-Sep-26 02:00N 43°24' E 004°51'0 0.0
2017-Sep-26 01:30N 43°24' E 004°51'0 0.0
2017-Sep-26 01:00N 43°24' E 004°51'0 0.0
2017-Sep-26 00:30N 43°24' E 004°51'0 0.0
2017-Sep-26 00:00N 43°24' E 004°51'0 0.0
2017-Sep-25 23:30N 43°24' E 004°51'0 0.0
2017-Sep-25 23:00N 43°24' E 004°51'0 0.0
2017-Sep-25 22:30N 43°24' E 004°51'0 0.0
2017-Sep-25 22:00N 43°24' E 004°51'0 0.0
2017-Sep-25 21:30N 43°24' E 004°51'0 0.0
2017-Sep-25 21:00N 43°24' E 004°51'0 0.0
2017-Sep-25 20:30N 43°24' E 004°51'0 0.0
2017-Sep-25 20:00N 43°24' E 004°51'1 1.8
2017-Sep-25 19:30N 43°24' E 004°52'510.8
2017-Sep-25 19:00N 43°21' E 004°58'510.1
2017-Sep-25 18:30N 43°16' E 005°01'611.7
2017-Sep-25 18:00N 43°11' E 005°01'713.8
2017-Sep-25 17:30N 43°06' E 004°54'2 3.5
2017-Sep-25 17:00N 43°05' E 004°53'0 0.2
2017-Sep-25 16:30N 43°05' E 004°53'0 0.2
2017-Sep-25 16:00N 43°05' E 004°53'0 0.4
2017-Sep-25 15:31N 43°05' E 004°53'1 1.1
2017-Sep-25 15:00N 43°05' E 004°54'3 6.6
2017-Sep-25 14:30N 43°02' E 004°52'816.6
2017-Sep-25 14:00N 42°55' E 004°45'816.8
2017-Sep-25 13:30N 42°49' E 004°38'816.8
2017-Sep-25 13:01N 42°42' E 004°31'816.7
2017-Sep-25 12:30N 42°35' E 004°24'816.6
2017-Sep-25 12:00N 42°29' E 004°17'816.4
2017-Sep-25 11:30N 42°22' E 004°11'815.8
2017-Sep-25 11:00N 42°16' E 004°04'815.3
2017-Sep-25 10:31N 42°10' E 003°58'714.8
2017-Sep-25 10:00N 42°04' E 003°52'815.0
2017-Sep-25 09:28N 41°57' E 003°45'715.4
2017-Sep-25 09:00N 41°51' E 003°40'1615.8
2017-Sep-25 08:00N 41°39' E 003°27'815.9
2017-Sep-25 07:29N 41°31' E 003°23'1017.2
2017-Sep-25 06:53N 41°24' E 003°13'717.7
2017-Sep-25 06:30N 41°19' E 003°07'2118.6
2017-Sep-25 05:24N 41°03' E 002°50'718.7
2017-Sep-25 05:00N 40°57' E 002°44'918.5
2017-Sep-25 04:30N 40°49' E 002°37'919.0
2017-Sep-25 04:01N 40°42' E 002°29'1019.2
2017-Sep-25 03:30N 40°35' E 002°21'1019.5
2017-Sep-25 03:00N 40°27' E 002°13'1019.6
2017-Sep-25 02:30N 40°19' E 002°05'1019.4
2017-Sep-25 02:00N 40°12' E 001°57'918.9
2017-Sep-25 01:30N 40°04' E 001°49'919.0
2017-Sep-25 01:00N 39°57' E 001°42'918.6
2017-Sep-25 00:31N 39°49' E 001°35'918.6
2017-Sep-25 00:00N 39°42' E 001°28'1318.7
2017-Sep-24 23:19N 39°31' E 001°18'618.9
2017-Sep-24 23:00N 39°27' E 001°13'1018.9
2017-Sep-24 22:30N 39°19' E 001°05'918.9
2017-Sep-24 22:00N 39°12' E 000°58'1019.3
2017-Sep-24 21:30N 39°04' E 000°50'1019.1
2017-Sep-24 21:01N 38°57' E 000°43'1219.1
2017-Sep-24 20:24N 38°47' E 000°34'819.1
2017-Sep-24 19:58N 38°41' E 000°27'919.0
2017-Sep-24 19:30N 38°34' E 000°21'918.9
2017-Sep-24 19:00N 38°26' E 000°15'1019.1
2017-Sep-24 18:30N 38°17' E 000°08'1018.9
2017-Sep-24 18:00N 38°10' E 000°01'1018.9
2017-Sep-24 17:30N 38°02' W 000°05'918.7
2017-Sep-24 17:00N 37°54' W 000°12'918.7
2017-Sep-24 16:30N 37°46' W 000°19'918.7
2017-Sep-24 16:01N 37°39' W 000°26'918.4
2017-Sep-24 15:30N 37°31' W 000°33'918.4
2017-Sep-24 15:01N 37°25' W 000°41'918.4
2017-Sep-24 14:30N 37°19' W 000°50'1118.5
2017-Sep-24 13:55N 37°12' W 000°60'20717.5
2017-Sep-24 02:04N 36°01' W 005°02'618.6
2017-Sep-24 01:46N 35°60' W 005°09'518.5
2017-Sep-24 01:31N 35°59' W 005°15'918.4
2017-Sep-24 01:01N 35°57' W 005°26'917.9
2017-Sep-24 00:30N 35°55' W 005°37'2416.3
2017-Sep-23 23:03N 35°54' W 006°06'717.4
2017-Sep-23 22:38N 35°54' W 006°14'78115.4
2017-Sep-21 19:57N 48°55' W 005°48'1018.2
2017-Sep-21 19:23N 49°00' W 005°35'616.4
2017-Sep-21 19:00N 49°03' W 005°27'815.0
2017-Sep-21 18:29N 49°07' W 005°16'5216.2
2017-Sep-21 15:16N 49°32' W 004°06'518.5
2017-Sep-21 14:59N 49°35' W 003°59'919.0
2017-Sep-21 14:30N 49°39' W 003°47'1019.7
2017-Sep-21 14:00N 49°44' W 003°34'1020.3
2017-Sep-21 13:30N 49°50' W 003°20'1020.4
2017-Sep-21 13:00N 49°55' W 003°06'1020.2
2017-Sep-21 12:30N 49°59' W 002°52'1019.6
2017-Sep-21 12:00N 50°03' W 002°38'8815.3
2017-Sep-21 06:15N 49°38' W 000°27'518.6
2017-Sep-21 06:00N 49°35' W 000°21'918.9
2017-Sep-21 05:30N 49°32' W 000°08'816.7
2017-Sep-21 05:00N 49°29' E 000°05'3 6.4
2017-Sep-21 04:31N 49°28' E 000°09'0 0.5
2017-Sep-21 04:00N 49°28' E 000°09'0 0.0
2017-Sep-21 03:30N 49°28' E 000°09'0 0.0
2017-Sep-21 03:00N 49°28' E 000°09'0 0.0
2017-Sep-21 02:30N 49°28' E 000°09'0 0.0
2017-Sep-21 02:00N 49°28' E 000°09'0 0.0
2017-Sep-21 01:30N 49°28' E 000°09'0 0.0
2017-Sep-21 01:00N 49°28' E 000°09'0 0.0
2017-Sep-21 00:30N 49°28' E 000°09'0 0.0
2017-Sep-21 00:00N 49°28' E 000°09'0 0.0
2017-Sep-20 23:30N 49°28' E 000°09'0 0.0
2017-Sep-20 23:00N 49°28' E 000°09'0 0.0
2017-Sep-20 22:30N 49°28' E 000°09'0 0.0
2017-Sep-20 22:00N 49°28' E 000°09'0 0.0
2017-Sep-20 21:30N 49°28' E 000°09'0 0.2
2017-Sep-20 21:00N 49°28' E 000°09'3 6.5
2017-Sep-20 20:30N 49°29' E 000°04'714.1
2017-Sep-20 20:01N 49°31' W 000°06'4 8.0
2017-Sep-20 19:31N 49°35' W 000°10'611.8
2017-Sep-20 19:01N 49°40' W 000°10'1019.7
2017-Sep-20 18:31N 49°50' W 000°08'1121.5
2017-Sep-20 18:00N 50°01' W 000°10'1121.3
2017-Sep-20 17:29N 50°12' W 000°12'1020.4
2017-Sep-20 17:01N 50°22' W 000°11'1020.6
2017-Sep-20 16:30N 50°28' E 000°02'1121.9
2017-Sep-20 16:01N 50°32' E 000°18'1121.8
2017-Sep-20 15:31N 50°35' E 000°34'1121.0
2017-Sep-20 15:01N 50°40' E 000°48'2020.1
2017-Sep-20 14:00N 50°54' E 001°11'918.6
2017-Sep-20 13:31N 51°01' E 001°22'917.5
2017-Sep-20 13:01N 51°06' E 001°32'917.1
2017-Sep-20 12:31N 51°12' E 001°43'917.9
2017-Sep-20 12:01N 51°19' E 001°51'1019.1
2017-Sep-20 11:30N 51°27' E 001°60'1020.2
2017-Sep-20 11:00N 51°35' E 002°10'1120.9
2017-Sep-20 10:30N 51°43' E 002°20'3520.1
2017-Sep-20 08:47N 52°02' E 003°08'621.5
2017-Sep-20 08:30N 52°02' E 003°18'1121.6
2017-Sep-20 08:00N 52°03' E 003°35'1019.5
2017-Sep-20 07:31N 52°03' E 003°51'3 6.9
2017-Sep-20 07:00N 52°01' E 003°56'713.4
2017-Sep-20 06:30N 51°59' E 004°06'510.4
2017-Sep-20 06:00N 51°56' E 004°13'5 9.4
2017-Sep-20 05:30N 51°54' E 004°20'4 7.6
2017-Sep-20 05:00N 51°54' E 004°26'1 1.4
2017-Sep-20 04:30N 51°53' E 004°26'0 0.0
2017-Sep-20 04:00N 51°53' E 004°26'0 0.0
2017-Sep-20 03:30N 51°53' E 004°26'0 0.0
2017-Sep-20 03:00N 51°53' E 004°26'0 0.0
2017-Sep-20 02:30N 51°53' E 004°26'0 0.0
2017-Sep-20 02:00N 51°53' E 004°26'0 0.0
2017-Sep-20 01:30N 51°53' E 004°26'0 0.0
2017-Sep-20 01:00N 51°53' E 004°26'0 0.0
2017-Sep-20 00:30N 51°53' E 004°26'0 0.0
2017-Sep-20 00:00N 51°53' E 004°26'0 0.0
2017-Sep-19 23:30N 51°53' E 004°26'0 0.0
2017-Sep-19 23:00N 51°53' E 004°26'0 0.0
2017-Sep-19 22:30N 51°53' E 004°26'0 0.0
2017-Sep-19 22:00N 51°53' E 004°26'0 0.0
2017-Sep-19 21:30N 51°53' E 004°26'0 0.0
2017-Sep-19 21:00N 51°53' E 004°26'0 0.0
2017-Sep-19 20:30N 51°53' E 004°26'0 0.0
2017-Sep-19 20:00N 51°53' E 004°26'0 0.0
2017-Sep-19 19:30N 51°53' E 004°26'0 0.0
2017-Sep-19 19:00N 51°53' E 004°26'0 0.0
2017-Sep-19 18:30N 51°53' E 004°26'0 0.0
2017-Sep-19 18:00N 51°53' E 004°26'0 0.0
2017-Sep-19 17:30N 51°53' E 004°26'0 0.0
2017-Sep-19 17:00N 51°53' E 004°26'0 0.0
2017-Sep-19 16:30N 51°53' E 004°26'0 0.0
2017-Sep-19 16:00N 51°53' E 004°26'0 0.0
2017-Sep-19 15:30N 51°53' E 004°26'0 0.0
2017-Sep-19 15:00N 51°53' E 004°26'0 0.0
2017-Sep-19 14:30N 51°53' E 004°26'0 0.0
2017-Sep-19 14:00N 51°53' E 004°26'0 0.0
2017-Sep-19 13:30N 51°53' E 004°26'0 0.0
2017-Sep-19 13:00N 51°53' E 004°26'0 0.0
2017-Sep-19 12:30N 51°53' E 004°26'0 0.0
2017-Sep-19 12:00N 51°53' E 004°26'0 0.0
2017-Sep-19 11:30N 51°53' E 004°26'0 0.0
2017-Sep-19 11:00N 51°53' E 004°26'0 0.0
2017-Sep-19 10:30N 51°53' E 004°26'0 0.0
2017-Sep-19 10:00N 51°53' E 004°26'0 0.0
2017-Sep-19 09:30N 51°53' E 004°26'0 0.0
2017-Sep-19 09:00N 51°53' E 004°26'0 0.0
2017-Sep-19 08:30N 51°53' E 004°26'0 0.0
2017-Sep-19 08:00N 51°53' E 004°26'0 0.0
2017-Sep-19 07:30N 51°53' E 004°26'0 0.0
2017-Sep-19 07:00N 51°53' E 004°26'0 0.0
2017-Sep-19 06:30N 51°53' E 004°26'0 0.0
2017-Sep-19 06:00N 51°53' E 004°26'0 0.0
2017-Sep-19 05:30N 51°53' E 004°26'0 0.0
2017-Sep-19 05:00N 51°53' E 004°26'0 0.0
2017-Sep-19 04:30N 51°53' E 004°26'0 0.0
2017-Sep-19 04:00N 51°53' E 004°26'0 0.8
2017-Sep-19 03:31N 51°54' E 004°26'2 4.0
2017-Sep-19 03:00N 51°54' E 004°23'4 7.0
2017-Sep-19 02:30N 51°54' E 004°17'4 7.9
2017-Sep-19 02:01N 51°56' E 004°12'5 9.2
2017-Sep-19 01:31N 51°59' E 004°06'4 8.2
2017-Sep-19 01:00N 52°00' E 003°60'4 8.6
2017-Sep-19 00:30N 51°60' E 003°53'0 0.9
2017-Sep-19 00:01N 51°60' E 003°52'2 3.1
2017-Sep-18 23:31N 52°00' E 003°50'510.4
2017-Sep-18 23:00N 52°02' E 003°42'611.9
2017-Sep-18 22:30N 52°06' E 003°34'611.2
2017-Sep-18 22:00N 52°11' E 003°30'612.9
2017-Sep-18 21:31N 52°17' E 003°30'712.9
2017-Sep-18 21:00N 52°24' E 003°30'613.0
2017-Sep-18 20:30N 52°30' E 003°29'4411.9
2017-Sep-18 16:48N 53°05' E 004°15'3 7.1
2017-Sep-18 16:26N 53°07' E 004°18'3 6.9
2017-Sep-18 15:59N 53°09' E 004°22'13 6.4
2017-Sep-18 13:59N 53°20' E 004°32'4 7.3
2017-Sep-18 13:30N 53°23' E 004°34'4 7.7
2017-Sep-18 13:00N 53°27' E 004°37'4 8.2
2017-Sep-18 12:28N 53°29' E 004°43'4 8.9
2017-Sep-18 12:00N 53°30' E 004°50'612.3
2017-Sep-18 11:31N 53°33' E 004°59'613.0
2017-Sep-18 11:01N 53°36' E 005°09'612.7
2017-Sep-18 10:30N 53°38' E 005°19'612.5
2017-Sep-18 10:00N 53°40' E 005°29'5 9.8
2017-Sep-18 09:31N 53°42' E 005°37'7510.8
2017-Sep-18 02:35N 54°01' E 007°40'112.1
2017-Sep-18 02:29N 54°02' E 007°41'812.2
2017-Sep-18 01:52N 54°01' E 007°54'512.8
2017-Sep-18 01:30N 54°01' E 008°02'612.6
2017-Sep-18 01:00N 54°00' E 008°13'919.0
2017-Sep-18 00:31N 53°59' E 008°29'917.2
2017-Sep-18 00:00N 53°54' E 008°41'612.5
2017-Sep-17 23:30N 53°50' E 008°49'815.4
2017-Sep-17 23:01N 53°52' E 009°02'510.9
2017-Sep-17 22:31N 53°53' E 009°11'611.7
2017-Sep-17 22:01N 53°50' E 009°20'612.8
2017-Sep-17 21:30N 53°45' E 009°25'611.0
2017-Sep-17 21:00N 53°40' E 009°31'5 9.4
2017-Sep-17 20:30N 53°36' E 009°35'510.8
2017-Sep-17 20:00N 53°34' E 009°43'510.7
2017-Sep-17 19:30N 53°33' E 009°52'2 3.3
2017-Sep-17 19:00N 53°32' E 009°55'0 0.0
2017-Sep-17 18:30N 53°32' E 009°55'0 0.0
2017-Sep-17 18:00N 53°32' E 009°55'0 0.0
2017-Sep-17 17:30N 53°32' E 009°55'0 0.0
2017-Sep-17 17:00N 53°32' E 009°55'0 0.0
2017-Sep-17 16:30N 53°32' E 009°55'0 0.0
2017-Sep-17 16:00N 53°32' E 009°55'0 0.0
2017-Sep-17 15:30N 53°32' E 009°55'0 0.0
2017-Sep-17 15:00N 53°32' E 009°55'0 0.0
2017-Sep-17 14:30N 53°32' E 009°55'0 0.0
2017-Sep-17 14:00N 53°32' E 009°55'0 0.0
2017-Sep-17 13:30N 53°32' E 009°55'0 0.0
2017-Sep-17 13:00N 53°32' E 009°55'0 0.0
2017-Sep-17 12:30N 53°32' E 009°55'0 0.0
2017-Sep-17 12:00N 53°32' E 009°55'0 0.0
2017-Sep-17 11:30N 53°32' E 009°55'0 0.0
2017-Sep-17 11:00N 53°32' E 009°55'0 0.0
2017-Sep-17 10:30N 53°32' E 009°55'0 0.0
2017-Sep-17 10:00N 53°32' E 009°55'0 0.0
2017-Sep-17 09:30N 53°32' E 009°55'0 0.0
2017-Sep-17 09:00N 53°32' E 009°55'0 0.0
2017-Sep-17 08:30N 53°32' E 009°55'0 0.0
2017-Sep-17 08:00N 53°32' E 009°55'0 0.0
2017-Sep-17 07:30N 53°32' E 009°55'0 0.0
2017-Sep-17 07:00N 53°32' E 009°55'0 0.0
2017-Sep-17 06:30N 53°32' E 009°55'0 0.0
2017-Sep-17 06:00N 53°32' E 009°55'0 0.0
2017-Sep-17 05:30N 53°32' E 009°55'0 0.0
2017-Sep-17 05:00N 53°32' E 009°55'0 0.0
2017-Sep-17 04:30N 53°32' E 009°55'0 0.0
2017-Sep-17 04:00N 53°32' E 009°55'0 0.0
2017-Sep-17 03:30N 53°32' E 009°55'0 0.0
2017-Sep-17 03:00N 53°32' E 009°55'0 0.0
2017-Sep-17 02:30N 53°32' E 009°55'0 0.0
2017-Sep-17 02:00N 53°32' E 009°55'0 0.0
2017-Sep-17 01:30N 53°32' E 009°55'0 0.0
2017-Sep-17 01:00N 53°32' E 009°55'0 0.0
2017-Sep-17 00:30N 53°32' E 009°55'0 0.0
2017-Sep-17 00:00N 53°32' E 009°55'0 0.0
2017-Sep-16 23:30N 53°32' E 009°55'0 0.0
2017-Sep-16 23:00N 53°32' E 009°55'0 0.0
2017-Sep-16 22:30N 53°32' E 009°55'0 0.0
2017-Sep-16 22:00N 53°32' E 009°55'0 0.0
2017-Sep-16 21:30N 53°32' E 009°55'0 0.0
2017-Sep-16 21:00N 53°32' E 009°55'0 0.0
2017-Sep-16 20:30N 53°32' E 009°55'0 0.0
2017-Sep-16 20:00N 53°32' E 009°55'0 0.0
2017-Sep-16 19:30N 53°32' E 009°55'0 0.0
2017-Sep-16 19:00N 53°32' E 009°55'0 0.0
2017-Sep-16 18:30N 53°32' E 009°55'0 0.0
2017-Sep-16 18:00N 53°32' E 009°55'0 0.0
2017-Sep-16 17:30N 53°32' E 009°55'0 0.0
2017-Sep-16 17:00N 53°32' E 009°55'0 0.0
2017-Sep-16 16:30N 53°32' E 009°55'0 0.0
2017-Sep-16 16:00N 53°32' E 009°55'0 0.0
2017-Sep-16 15:30N 53°32' E 009°55'0 0.0
2017-Sep-16 15:00N 53°32' E 009°55'0 0.0
2017-Sep-16 14:30N 53°32' E 009°55'0 0.0
2017-Sep-16 14:00N 53°32' E 009°55'0 0.9
2017-Sep-16 13:30N 53°32' E 009°54'3 6.8
2017-Sep-16 13:00N 53°33' E 009°48'5 9.6
2017-Sep-16 12:31N 53°34' E 009°40'612.1
2017-Sep-16 12:00N 53°38' E 009°32'611.3
2017-Sep-16 11:31N 53°43' E 009°29'612.3
2017-Sep-16 11:01N 53°48' E 009°23'815.1
2017-Sep-16 10:30N 53°53' E 009°13'5 9.1
2017-Sep-16 10:00N 53°52' E 009°05'816.1
2017-Sep-16 09:31N 53°50' E 008°52'612.1
2017-Sep-16 09:00N 53°53' E 008°42'815.8
2017-Sep-16 08:31N 53°58' E 008°32'816.7
2017-Sep-16 08:00N 53°60' E 008°18'713.3
2017-Sep-16 07:30N 53°59' E 008°07'  

Dump ship's entire track history